Time;durP1;ratioP1;P1;durP2;ratioP2;P2;SDS_P1;SDS_P2;PMS_P1;PMS_P2;Temp;Humidity;BMP_temperature;BMP_pressure;BME280_temperature;BME280_humidity;BME280_pressure;Samples;Min_cycle;Max_cycle;Signal;HPM_P1;HPM_P2
2022/08/03 00:01:03;;;;;;;4.90;4.60;;;20.90;99.90;;;;;;5035490;28;20820;-65
2022/08/03 00:03:29;;;;;;;4.47;4.17;;;21.00;99.90;;;;;;5033094;28;20428;-65
2022/08/03 00:05:55;;;;;;;4.57;4.17;;;21.00;99.90;;;;;;5031949;28;20233;-65
2022/08/03 00:08:20;;;;;;;4.33;4.03;;;20.90;99.90;;;;;;5032504;28;20185;-65
2022/08/03 00:10:46;;;;;;;5.17;4.77;;;20.80;99.90;;;;;;5034776;28;20178;-65
2022/08/03 00:13:12;;;;;;;4.20;3.90;;;20.70;99.90;;;;;;5033341;28;20178;-65
2022/08/03 00:15:41;;;;;;;4.83;4.40;;;20.70;99.90;;;;;;5032044;28;20213;-65
2022/08/03 00:18:07;;;;;;;5.20;4.80;;;20.70;99.90;;;;;;5033364;28;20443;-65
2022/08/03 00:20:33;;;;;;;4.03;3.73;;;20.60;99.90;;;;;;5014721;28;20429;-65
2022/08/03 00:22:58;;;;;;;4.50;4.20;;;20.50;99.90;;;;;;5035623;28;20206;-65
2022/08/03 00:25:24;;;;;;;4.93;4.53;;;20.70;99.90;;;;;;5033062;28;20248;-65
2022/08/03 00:27:49;;;;;;;4.87;4.47;;;21.00;99.90;;;;;;5026298;28;20185;-65
2022/08/03 00:30:15;;;;;;;4.73;4.43;;;21.00;99.90;;;;;;5029871;28;20606;-65
2022/08/03 00:32:41;;;;;;;5.53;4.33;;;21.10;99.90;;;;;;5032833;28;20170;-66
2022/08/03 00:35:06;;;;;;;5.37;4.97;;;21.20;99.90;;;;;;5038912;28;20209;-65
2022/08/03 00:37:32;;;;;;;4.63;4.10;;;21.10;99.90;;;;;;5031985;28;20194;-65
2022/08/03 00:39:57;;;;;;;5.33;4.83;;;21.00;99.90;;;;;;5031588;28;20704;-65
2022/08/03 00:42:23;;;;;;;5.13;4.63;;;20.80;99.90;;;;;;5030179;28;20213;-65
2022/08/03 00:44:48;;;;;;;5.07;4.63;;;20.70;99.90;;;;;;5031427;28;20222;-65
2022/08/03 00:47:14;;;;;;;5.00;4.50;;;20.60;99.90;;;;;;5026711;28;20192;-65
2022/08/03 00:49:40;;;;;;;4.63;4.33;;;20.50;99.90;;;;;;5031518;28;20178;-65
2022/08/03 00:52:08;;;;;;;5.90;5.40;;;20.50;99.90;;;;;;5031718;28;20174;-66
2022/08/03 00:54:36;;;;;;;9.30;8.40;;;20.40;99.90;;;;;;5009753;28;20182;-65
2022/08/03 00:57:01;;;;;;;6.70;5.97;;;20.30;99.90;;;;;;5028490;28;20480;-65
2022/08/03 00:59:28;;;;;;;6.30;5.80;;;20.30;99.90;;;;;;5031365;28;20487;-65
2022/08/03 01:01:53;;;;;;;4.90;4.60;;;20.40;99.90;;;;;;5025150;28;20186;-65
2022/08/03 01:04:19;;;;;;;5.80;4.87;;;20.40;99.90;;;;;;5030933;28;20432;-65
2022/08/03 01:07:05;;;;;;;5.70;5.30;;;20.30;99.90;;;;;;5030028;28;20600;-65
2022/08/03 01:09:56;;;;;;;6.17;4.87;;;20.40;99.90;;;;;;5030468;28;20177;-65
2022/08/03 01:12:31;;;;;;;5.90;5.40;;;20.30;99.90;;;;;;5031174;28;20451;-65
2022/08/03 01:15:12;;;;;;;5.73;5.23;;;20.20;99.90;;;;;;5031608;28;20457;-65
2022/08/03 01:17:47;;;;;;;7.30;5.03;;;20.20;99.90;;;;;;5032948;28;20428;-65
2022/08/03 01:20:15;;;;;;;5.30;4.90;;;19.90;99.90;;;;;;5030689;28;20968;-65
2022/08/03 01:23:12;;;;;;;5.40;4.90;;;20.10;99.90;;;;;;5031556;28;20889;-65
2022/08/03 01:25:40;;;;;;;5.83;5.43;;;20.20;99.90;;;;;;5024095;28;20468;-65
2022/08/03 01:28:33;;;;;;;4.73;4.43;;;20.10;99.90;;;;;;5031772;28;20460;-65
2022/08/03 01:31:05;;;;;;;5.60;5.10;;;20.10;99.90;;;;;;5031067;28;20424;-65
2022/08/03 01:33:39;;;;;;;5.30;4.80;;;20.00;99.90;;;;;;5035257;28;20933;-65
2022/08/03 01:36:12;;;;;;;5.43;5.03;;;20.00;99.90;;;;;;5031691;28;20501;-65
2022/08/03 01:38:45;;;;;;;6.53;4.90;;;20.00;99.90;;;;;;5030677;28;20519;-65
2022/08/03 01:41:15;;;;;;;5.30;4.90;;;20.00;99.90;;;;;;5031078;28;20543;-65
2022/08/03 01:43:47;;;;;;;5.30;4.90;;;19.90;99.90;;;;;;5025031;28;20937;-65
2022/08/03 01:46:14;;;;;;;5.90;5.40;;;19.80;99.90;;;;;;5031246;28;20457;-65
2022/08/03 01:48:42;;;;;;;4.90;4.60;;;19.80;99.90;;;;;;5030093;28;20511;-65
2022/08/03 01:51:09;;;;;;;5.30;4.90;;;19.80;99.90;;;;;;5027237;28;20444;-65
2022/08/03 01:53:36;;;;;;;4.90;4.50;;;19.80;99.90;;;;;;5030426;28;20455;-65
2022/08/03 01:56:03;;;;;;;5.60;5.20;;;19.80;99.90;;;;;;5027573;28;20478;-65
2022/08/03 01:58:30;;;;;;;5.93;5.53;;;19.70;99.90;;;;;;5031468;28;20448;-65
2022/08/03 02:00:59;;;;;;;5.87;5.37;;;19.80;99.90;;;;;;5028127;28;21007;-65
2022/08/03 02:03:27;;;;;;;8.03;5.13;;;19.80;99.90;;;;;;5029734;28;20441;-65
2022/08/03 02:05:55;;;;;;;5.33;4.83;;;19.80;99.90;;;;;;5027765;28;20958;-65
2022/08/03 02:08:23;;;;;;;4.40;4.10;;;19.80;99.90;;;;;;5027358;28;20998;-65
2022/08/03 02:10:49;;;;;;;4.73;4.43;;;19.90;99.90;;;;;;5031572;28;20432;-65
2022/08/03 02:13:17;;;;;;;5.30;5.00;;;19.90;99.90;;;;;;5030496;28;20491;-65
2022/08/03 02:15:43;;;;;;;5.70;5.20;;;19.70;99.90;;;;;;5030866;28;20515;-65
2022/08/03 02:18:10;;;;;;;5.77;5.30;;;19.60;99.90;;;;;;5028307;28;20528;-65
2022/08/03 02:20:38;;;;;;;6.00;5.40;;;19.50;99.90;;;;;;5031190;28;20805;-65
2022/08/03 02:23:05;;;;;;;5.67;5.27;;;19.40;99.90;;;;;;5029924;28;20503;-65
2022/08/03 02:25:33;;;;;;;5.90;5.30;;;19.50;99.90;;;;;;5027706;28;20543;-65
2022/08/03 02:28:08;;;;;;;6.10;5.70;;;19.40;99.90;;;;;;5025244;28;20440;-65
2022/08/03 02:30:37;;;;;;;9.13;5.53;;;19.40;99.90;;;;;;5028718;28;20872;-65
2022/08/03 02:33:06;;;;;;;5.40;5.00;;;19.50;99.90;;;;;;5030134;28;20445;-65
2022/08/03 02:35:32;;;;;;;5.60;5.20;;;19.50;99.90;;;;;;5030943;28;20484;-65
2022/08/03 02:38:03;;;;;;;5.50;5.10;;;19.50;99.90;;;;;;5006760;28;20555;-65
2022/08/03 02:40:30;;;;;;;5.63;5.23;;;19.50;99.90;;;;;;5029057;28;20523;-65
2022/08/03 02:43:14;;;;;;;6.90;6.30;;;19.60;99.90;;;;;;5025699;28;20470;-65
2022/08/03 02:45:46;;;;;;;6.20;5.70;;;19.60;99.90;;;;;;5028426;28;20445;-65
2022/08/03 02:48:16;;;;;;;7.10;4.60;;;19.60;99.90;;;;;;5030360;28;20474;-65
2022/08/03 02:50:44;;;;;;;6.63;5.80;;;19.40;99.90;;;;;;5031967;28;20512;-65
2022/08/03 02:53:11;;;;;;;6.60;6.10;;;19.40;99.90;;;;;;5024654;28;20442;-65
2022/08/03 02:55:38;;;;;;;5.57;5.17;;;19.30;99.90;;;;;;5030190;28;20506;-65
2022/08/03 02:58:05;;;;;;;5.80;5.40;;;19.20;99.90;;;;;;5030375;28;20460;-65
2022/08/03 03:00:32;;;;;;;7.97;5.13;;;19.30;99.90;;;;;;5028970;28;20446;-65
2022/08/03 03:03:00;;;;;;;6.00;5.50;;;19.40;99.90;;;;;;5024732;28;20524;-65
2022/08/03 03:05:26;;;;;;;6.00;5.23;;;19.40;99.90;;;;;;5028576;28;20459;-65
2022/08/03 03:07:51;;;;;;;5.37;4.97;;;19.30;99.90;;;;;;5029745;28;20441;-65
2022/08/03 03:10:21;;;;;;;5.30;4.83;;;19.20;99.90;;;;;;5025430;28;20429;-65
2022/08/03 03:12:51;;;;;;;5.90;5.50;;;19.20;99.90;;;;;;5030424;28;20175;-65
2022/08/03 03:15:17;;;;;;;7.63;6.93;;;19.30;99.90;;;;;;5027805;28;21025;-65
2022/08/03 03:17:43;;;;;;;5.97;5.47;;;19.20;99.90;;;;;;5029479;28;20925;-65
2022/08/03 03:20:10;;;;;;;6.00;5.50;;;19.20;99.90;;;;;;5015595;28;20432;-65
2022/08/03 03:22:37;;;;;;;7.83;6.57;;;19.20;99.90;;;;;;5034007;28;20518;-65
2022/08/03 03:25:05;;;;;;;6.97;6.47;;;19.30;99.90;;;;;;5031559;28;20451;-65
2022/08/03 03:27:32;;;;;;;6.33;5.17;;;19.20;99.90;;;;;;5033125;28;20933;-65
2022/08/03 03:29:58;;;;;;;9.13;8.07;;;19.10;99.90;;;;;;5032685;28;20460;-65
2022/08/03 03:32:26;;;;;;;9.50;8.70;;;19.00;99.90;;;;;;5032412;28;20475;-65
2022/08/03 03:34:54;;;;;;;7.30;6.60;;;19.00;99.90;;;;;;5034124;28;20285;-67
2022/08/03 03:37:19;;;;;;;7.10;6.60;;;19.00;99.90;;;;;;5030535;28;20786;-66
2022/08/03 03:39:45;;;;;;;6.60;6.10;;;19.10;99.90;;;;;;5036488;28;20508;-65
2022/08/03 03:42:10;;;;;;;7.57;6.90;;;19.00;99.90;;;;;;5034301;28;20221;-66
2022/08/03 03:44:36;;;;;;;7.33;6.70;;;19.00;99.90;;;;;;5035738;28;20197;-67
2022/08/03 03:47:02;;;;;;;8.03;7.43;;;19.00;99.90;;;;;;5033271;28;20213;-65
2022/08/03 03:49:27;;;;;;;7.20;6.50;;;19.10;99.90;;;;;;5033559;28;20608;-66
2022/08/03 03:51:54;;;;;;;7.77;7.03;;;19.10;99.90;;;;;;5027521;28;20228;-65
2022/08/03 03:54:20;;;;;;;8.67;7.93;;;18.90;99.90;;;;;;5031110;28;20189;-67
2022/08/03 03:56:46;;;;;;;8.27;7.47;;;18.90;99.90;;;;;;5026544;28;20452;-66
2022/08/03 03:59:11;;;;;;;7.00;6.10;;;18.90;99.90;;;;;;5032587;28;20494;-66
2022/08/03 04:01:37;;;;;;;6.50;5.90;;;18.80;99.90;;;;;;5033637;28;20201;-66
2022/08/03 04:10:57;;;;;;;6.93;6.33;;;18.80;99.90;;;;;;5015522;28;20181;-66
2022/08/03 04:12:25;;;;;;;8.63;7.17;;;18.90;99.90;;;;;;5032380;28;20994;-66
2022/08/03 04:14:55;;;;;;;6.43;6.03;;;18.90;99.90;;;;;;5029322;28;20449;-66
2022/08/03 04:17:25;;;;;;;6.70;6.20;;;18.90;99.90;;;;;;5033591;28;20933;-66
2022/08/03 04:19:53;;;;;;;7.73;7.07;;;19.00;99.90;;;;;;5033927;28;20938;-67
2022/08/03 04:22:24;;;;;;;6.70;6.07;;;19.10;99.90;;;;;;5033187;28;20471;-66
2022/08/03 04:24:54;;;;;;;6.00;5.50;;;19.30;99.90;;;;;;5038276;28;20515;-67
2022/08/03 04:27:23;;;;;;;7.40;6.70;;;19.40;99.90;;;;;;5031302;28;20436;-66
2022/08/03 04:29:52;;;;;;;6.53;6.00;;;19.50;99.90;;;;;;5026098;28;20429;-67
2022/08/03 04:32:19;;;;;;;9.27;6.40;;;19.50;99.90;;;;;;5030520;28;20449;-66
2022/08/03 04:34:46;;;;;;;7.57;6.90;;;19.50;99.90;;;;;;5032777;28;21096;-66
2022/08/03 04:37:17;;;;;;;6.50;6.00;;;19.60;99.90;;;;;;5032349;28;20459;-65
2022/08/03 04:39:46;;;;;;;6.83;6.23;;;19.70;99.90;;;;;;5024095;28;20436;-66
2022/08/03 04:42:13;;;;;;;8.43;6.87;;;19.80;99.90;;;;;;5034786;28;20467;-67
2022/08/03 04:44:43;;;;;;;7.23;6.63;;;19.90;99.90;;;;;;5028375;28;20425;-66
2022/08/03 04:47:08;;;;;;;8.03;7.33;;;20.00;99.90;;;;;;5032105;28;20500;-67
2022/08/03 04:49:36;;;;;;;7.33;6.73;;;20.00;99.90;;;;;;5031779;28;20439;-66
2022/08/03 04:52:02;;;;;;;7.50;6.80;;;20.10;99.90;;;;;;5031965;28;20249;-66
2022/08/03 04:54:27;;;;;;;8.47;7.77;;;20.10;99.90;;;;;;5027558;28;20534;-66
2022/08/03 04:56:53;;;;;;;9.50;7.40;;;20.10;99.90;;;;;;5032903;28;20282;-66
2022/08/03 04:59:18;;;;;;;6.87;6.27;;;20.20;99.90;;;;;;5025405;28;20636;-66
2022/08/03 05:01:44;;;;;;;8.53;6.83;;;20.20;99.90;;;;;;5027730;28;20292;-66
2022/08/03 05:04:10;;;;;;;7.20;6.57;;;20.30;99.90;;;;;;5030686;28;20174;-67
2022/08/03 05:06:35;;;;;;;7.20;6.70;;;20.30;99.90;;;;;;5031931;28;20199;-66
2022/08/03 05:09:01;;;;;;;7.80;7.00;;;20.50;99.90;;;;;;5022441;28;20198;-66
2022/08/03 05:11:27;;;;;;;7.70;7.00;;;20.60;99.90;;;;;;5029592;28;20182;-66
2022/08/03 05:13:53;;;;;;;8.30;7.60;;;20.70;99.90;;;;;;5031907;28;20472;-66
2022/08/03 05:16:18;;;;;;;7.60;7.10;;;20.80;99.90;;;;;;5029228;28;20487;-66
2022/08/03 05:18:44;;;;;;;7.87;7.17;;;20.80;99.90;;;;;;5028640;28;20621;-67
2022/08/03 05:21:12;;;;;;;7.30;6.70;;;20.90;99.90;;;;;;5032221;28;20174;-67
2022/08/03 05:23:38;;;;;;;7.53;6.87;;;21.00;99.90;;;;;;5027659;28;20434;-66
2022/08/03 05:26:04;;;;;;;7.70;7.00;;;21.10;99.90;;;;;;5028378;28;20461;-67
2022/08/03 05:28:29;;;;;;;7.80;7.07;;;21.20;99.90;;;;;;5028737;28;20253;-67
2022/08/03 05:30:55;;;;;;;7.23;6.63;;;21.40;99.90;;;;;;5032232;28;20205;-67
2022/08/03 05:33:20;;;;;;;7.77;7.07;;;21.40;99.90;;;;;;5025632;28;20178;-66
2022/08/03 05:35:46;;;;;;;8.00;7.30;;;21.50;99.90;;;;;;5030797;28;20225;-67
2022/08/03 05:38:12;;;;;;;7.50;6.60;;;21.80;99.90;;;;;;5030582;28;20182;-66
2022/08/03 05:40:37;;;;;;;7.03;6.53;;;22.00;99.90;;;;;;5027445;28;20602;-67
2022/08/03 05:43:03;;;;;;;6.77;6.20;;;22.20;99.90;;;;;;5025882;28;20231;-66
2022/08/03 05:45:28;;;;;;;7.40;6.70;;;22.30;99.90;;;;;;5031377;28;20194;-66
2022/08/03 05:47:54;;;;;;;7.47;6.57;;;22.30;99.90;;;;;;5030963;28;20178;-67
2022/08/03 05:50:20;;;;;;;7.50;6.90;;;22.40;99.90;;;;;;5030971;28;20181;-67
2022/08/03 05:52:46;;;;;;;7.00;6.50;;;22.70;99.90;;;;;;5027990;28;20659;-66
2022/08/03 05:55:12;;;;;;;8.70;5.87;;;22.90;99.90;;;;;;5031361;28;20198;-63
2022/08/03 05:57:38;;;;;;;7.70;6.00;;;23.10;99.90;;;;;;5031321;28;20175;-63
2022/08/03 06:00:06;;;;;;;6.93;6.33;;;23.30;99.90;;;;;;5012062;28;20451;-62
2022/08/03 06:02:31;;;;;;;6.20;5.70;;;23.50;99.90;;;;;;5002985;28;20214;-62
2022/08/03 06:04:57;;;;;;;6.90;6.17;;;23.70;99.90;;;;;;5027652;28;20479;-62
2022/08/03 06:07:22;;;;;;;5.40;5.00;;;23.90;99.90;;;;;;5031175;28;20171;-63
2022/08/03 06:09:48;;;;;;;5.93;5.53;;;24.00;99.90;;;;;;5026525;28;20281;-63
2022/08/03 06:12:14;;;;;;;8.03;6.00;;;24.10;99.90;;;;;;5032347;28;20194;-63
2022/08/03 06:14:40;;;;;;;6.50;5.83;;;24.00;99.90;;;;;;5031964;28;20213;-64
2022/08/03 06:17:06;;;;;;;5.10;4.70;;;24.20;99.90;;;;;;5031335;28;20662;-63
2022/08/03 06:19:31;;;;;;;6.27;5.20;;;24.30;99.90;;;;;;5025810;28;20441;-64
2022/08/03 06:21:57;;;;;;;5.20;4.80;;;24.40;99.90;;;;;;5024267;28;20212;-62
2022/08/03 06:24:22;;;;;;;4.77;4.37;;;24.50;99.90;;;;;;5029742;28;20205;-62
2022/08/03 06:26:48;;;;;;;4.60;4.30;;;24.80;99.90;;;;;;5000827;28;20572;-62
2022/08/03 06:29:13;;;;;;;4.77;4.30;;;24.90;99.90;;;;;;5025060;28;20189;-61
2022/08/03 06:31:39;;;;;;;5.47;5.03;;;25.20;99.90;;;;;;5020444;28;20193;-62
2022/08/03 06:34:05;;;;;;;4.57;4.17;;;25.30;99.90;;;;;;5028346;28;20182;-62
2022/08/03 06:36:30;;;;;;;4.80;4.40;;;25.30;99.90;;;;;;5029446;28;20248;-62
2022/08/03 06:38:58;;;;;;;7.13;4.40;;;25.30;99.90;;;;;;5028768;28;20328;-62
2022/08/03 06:41:23;;;;;;;4.20;3.90;;;25.20;99.90;;;;;;5020939;28;20212;-64
2022/08/03 06:43:49;;;;;;;5.77;5.27;;;25.30;99.90;;;;;;5030235;28;20433;-64
2022/08/03 06:46:15;;;;;;;4.00;3.70;;;25.20;99.90;;;;;;5030313;28;20464;-64
2022/08/03 06:48:40;;;;;;;4.13;3.63;;;25.40;99.90;;;;;;5025794;28;20560;-64
2022/08/03 06:51:06;;;;;;;4.13;3.80;;;25.40;99.90;;;;;;5026189;28;20701;-64
2022/08/03 06:53:31;;;;;;;5.73;3.87;;;25.50;99.90;;;;;;5026666;28;20596;-64
2022/08/03 06:55:57;;;;;;;4.50;4.20;;;25.80;99.90;;;;;;5029372;28;20194;-64
2022/08/03 06:58:23;;;;;;;4.57;3.60;;;26.20;99.90;;;;;;5033373;28;20182;-64
2022/08/03 07:00:48;;;;;;;3.53;3.30;;;26.50;99.90;;;;;;5028487;28;20640;-64
2022/08/03 07:03:14;;;;;;;5.97;3.63;;;26.80;99.90;;;;;;5032814;28;20344;-64
2022/08/03 07:05:41;;;;;;;5.33;3.73;;;27.20;99.90;;;;;;5030846;28;20201;-64
2022/08/03 07:08:06;;;;;;;3.60;3.40;;;27.50;99.30;;;;;;5034073;28;20201;-64
2022/08/03 07:10:32;;;;;;;4.20;3.90;;;27.60;98.70;;;;;;5028905;28;20437;-64
2022/08/03 07:12:57;;;;;;;3.80;3.60;;;27.40;98.60;;;;;;5031849;28;20201;-64
2022/08/03 07:15:24;;;;;;;9.17;4.40;;;27.40;98.10;;;;;;5024862;28;20562;-64
2022/08/03 07:17:50;;;;;;;4.03;3.73;;;27.40;98.20;;;;;;5027799;28;20201;-64
2022/08/03 07:20:17;;;;;;;3.83;3.50;;;27.50;98.40;;;;;;5024389;28;20441;-64
2022/08/03 07:22:43;;;;;;;5.60;3.60;;;27.90;97.70;;;;;;5030392;28;20202;-64
2022/08/03 07:25:09;;;;;;;4.27;3.93;;;28.10;96.70;;;;;;5028486;28;20523;-64
2022/08/03 07:27:35;;;;;;;5.93;4.73;;;28.20;96.10;;;;;;5030853;28;21027;-64
2022/08/03 07:30:00;;;;;;;3.97;3.53;;;27.90;96.20;;;;;;5022300;28;20515;-64
2022/08/03 07:32:27;;;;;;;3.90;3.60;;;28.20;96.50;;;;;;5028599;28;20449;-64
2022/08/03 07:34:52;;;;;;;3.67;3.30;;;28.30;95.60;;;;;;5008624;28;20571;-64
2022/08/03 07:37:18;;;;;;;4.67;3.30;;;28.30;95.40;;;;;;5030073;28;20856;-64
2022/08/03 07:39:43;;;;;;;4.40;4.10;;;28.30;95.60;;;;;;5025166;28;20630;-64
2022/08/03 07:42:09;;;;;;;3.57;3.23;;;28.30;95.80;;;;;;5031057;28;20781;-64
2022/08/03 07:44:34;;;;;;;3.13;2.83;;;28.40;94.60;;;;;;5032628;28;20195;-64
2022/08/03 07:47:00;;;;;;;6.80;4.30;;;28.30;94.00;;;;;;5036144;28;20288;-64
2022/08/03 07:49:25;;;;;;;2.90;2.70;;;28.40;93.80;;;;;;5024726;28;20722;-64
2022/08/03 07:54:35;;;;;;;3.50;3.20;;;29.00;92.80;;;;;;5026018;28;20227;-64
2022/08/03 07:57:00;;;;;;;4.77;4.40;;;29.20;92.30;;;;;;5026441;28;20930;-64
2022/08/03 07:59:26;;;;;;;3.37;3.17;;;29.30;92.10;;;;;;5023356;28;20985;-64
2022/08/03 08:01:52;;;;;;;3.10;2.90;;;29.90;91.30;;;;;;5028370;28;20210;-64
2022/08/03 08:04:18;;;;;;;3.10;2.70;;;29.90;90.30;;;;;;5026472;28;20256;-64
2022/08/03 08:06:43;;;;;;;3.33;3.10;;;29.80;89.70;;;;;;5026941;28;20452;-64
2022/08/03 08:09:10;;;;;;;5.90;3.83;;;30.20;90.00;;;;;;5027249;28;20557;-64
2022/08/03 08:11:36;;;;;;;3.70;3.40;;;30.30;88.80;;;;;;5020834;28;20267;-62
2022/08/03 08:14:02;;;;;;;3.33;3.03;;;30.20;87.30;;;;;;5028303;28;20449;-62
2022/08/03 08:16:28;;;;;;;2.80;2.70;;;30.50;84.30;;;;;;5027786;28;20198;-62
2022/08/03 08:18:53;;;;;;;4.43;4.13;;;30.80;84.50;;;;;;5025322;28;20482;-62
2022/08/03 08:21:19;;;;;;;3.07;2.80;;;31.00;84.90;;;;;;5023121;28;20185;-62
2022/08/03 08:23:44;;;;;;;4.17;3.67;;;31.40;83.90;;;;;;5024597;28;20178;-62
2022/08/03 08:26:10;;;;;;;2.37;2.20;;;31.60;82.70;;;;;;5030404;28;20199;-62
2022/08/03 08:28:36;;;;;;;2.40;2.30;;;31.80;79.40;;;;;;5029752;28;20591;-61
2022/08/03 08:31:02;;;;;;;3.20;3.00;;;31.80;78.90;;;;;;5022047;28;20441;-61
2022/08/03 08:33:27;;;;;;;2.67;2.47;;;31.60;78.90;;;;;;5031360;28;20174;-61
2022/08/03 08:35:53;;;;;;;3.53;2.77;;;32.10;77.30;;;;;;5025097;28;20210;-61
2022/08/03 08:38:19;;;;;;;3.37;2.40;;;32.60;75.40;;;;;;5032550;28;20807;-63
2022/08/03 08:40:44;;;;;;;2.67;2.57;;;33.10;73.60;;;;;;5022917;28;20642;-61
2022/08/03 08:43:10;;;;;;;2.50;2.30;;;33.10;70.60;;;;;;5022682;28;20203;-61
2022/08/03 08:45:36;;;;;;;3.30;2.40;;;33.20;70.80;;;;;;5033961;28;20229;-61
2022/08/03 08:48:03;;;;;;;4.70;2.43;;;33.50;69.10;;;;;;5030543;28;20191;-61
2022/08/03 08:50:29;;;;;;;2.37;2.23;;;33.70;67.40;;;;;;5023627;28;20440;-61
2022/08/03 08:52:59;;;;;;;2.40;2.30;;;33.80;66.80;;;;;;5026307;28;20472;-61
2022/08/03 08:55:24;;;;;;;2.60;2.50;;;34.10;64.80;;;;;;5028630;28;20679;-62
2022/08/03 08:57:56;;;;;;;4.50;2.57;;;34.20;64.20;;;;;;5033081;28;20432;-62
2022/08/03 09:00:21;;;;;;;2.80;2.60;;;34.40;64.20;;;;;;5026258;28;20189;-61
2022/08/03 09:02:47;;;;;;;2.27;2.17;;;34.00;62.30;;;;;;5026017;28;20457;-61
2022/08/03 09:05:15;;;;;;;2.93;2.73;;;34.30;63.60;;;;;;5029693;28;20194;-61
2022/08/03 09:07:42;;;;;;;2.83;2.67;;;34.80;62.00;;;;;;5029441;28;20212;-61
2022/08/03 09:10:10;;;;;;;3.23;2.80;;;34.80;61.50;;;;;;5028570;28;20857;-61
2022/08/03 09:12:47;;;;;;;2.90;2.70;;;34.70;59.10;;;;;;5023780;28;21017;-61
2022/08/03 09:15:17;;;;;;;3.07;2.40;;;33.80;59.80;;;;;;5033642;28;20546;-61
2022/08/03 09:17:42;;;;;;;3.10;2.90;;;33.40;59.80;;;;;;5028954;28;20763;-61
2022/08/03 09:20:09;;;;;;;2.97;2.50;;;33.60;60.20;;;;;;5023384;28;20499;-61
2022/08/03 09:22:34;;;;;;;2.80;2.60;;;33.90;60.10;;;;;;5029764;28;20209;-61
2022/08/03 09:25:10;;;;;;;2.27;2.17;;;33.90;59.70;;;;;;5031183;28;20514;-61
2022/08/03 09:27:43;;;;;;;5.83;2.70;;;33.70;59.20;;;;;;5023344;28;20205;-61
2022/08/03 09:30:17;;;;;;;2.90;2.63;;;34.20;59.10;;;;;;5029287;28;20433;-60
2022/08/03 09:32:44;;;;;;;4.77;2.50;;;34.50;57.40;;;;;;5027554;28;20491;-61
2022/08/03 09:35:12;;;;;;;3.37;3.07;;;34.20;56.80;;;;;;5048330;23;21733;-64
2022/08/03 09:38:31;;;;;;;2.70;2.60;;;34.40;56.80;;;;;;5085340;28;20539;-64
2022/08/03 09:40:57;;;;;;;2.53;2.33;;;34.80;56.60;;;;;;5020352;28;20448;-64
2022/08/03 09:43:24;;;;;;;3.63;2.50;;;36.00;54.90;;;;;;5075955;28;20430;-64
2022/08/03 09:45:51;;;;;;;7.63;5.37;;;36.70;52.00;;;;;;5084404;28;20446;-64
2022/08/03 09:48:28;;;;;;;2.63;2.43;;;36.80;51.10;;;;;;5071209;28;20853;-64
2022/08/03 09:50:56;;;;;;;3.27;2.97;;;36.10;52.00;;;;;;5077055;28;20492;-64
2022/08/03 09:53:23;;;;;;;2.30;2.20;;;37.00;51.70;;;;;;5079001;28;20431;-64
2022/08/03 09:55:50;;;;;;;6.73;3.30;;;38.10;50.30;;;;;;5087018;28;20503;-64
2022/08/03 09:58:16;;;;;;;2.57;2.37;;;39.00;48.50;;;;;;5083448;28;20598;-64
2022/08/03 10:01:02;;;;;;;3.80;3.10;;;37.80;47.60;;;;;;5075966;28;20445;-64
2022/08/03 10:03:30;;;;;;;3.43;2.50;;;37.50;49.40;;;;;;5083565;28;20188;-64
2022/08/03 10:05:56;;;;;;;3.67;2.63;;;37.60;48.10;;;;;;5078707;28;20506;-64
2022/08/03 10:08:23;;;;;;;3.60;3.13;;;37.40;48.30;;;;;;5075167;28;20880;-65
2022/08/03 10:10:52;;;;;;;2.27;2.10;;;37.40;47.50;;;;;;5076975;28;20496;-65
2022/08/03 10:13:19;;;;;;;3.37;3.07;;;38.40;47.30;;;;;;5087863;28;20440;-65
2022/08/03 10:15:46;;;;;;;3.53;2.43;;;38.50;45.70;;;;;;5074896;28;20463;-65
2022/08/03 10:18:12;;;;;;;2.93;2.83;;;38.30;46.30;;;;;;5069344;28;20441;-65
2022/08/03 10:20:51;;;;;;;3.63;2.20;;;38.60;45.70;;;;;;5074303;28;20529;-66
2022/08/03 10:23:18;;;;;;;2.57;2.47;;;39.20;44.70;;;;;;5068419;28;20435;-64
2022/08/03 10:25:53;;;;;;;2.57;2.43;;;40.60;43.40;;;;;;5076627;28;20465;-64
2022/08/03 10:28:20;;;;;;;2.77;2.57;;;41.20;42.30;;;;;;5085676;28;20447;-65
2022/08/03 10:30:52;;;;;;;3.10;2.90;;;41.60;40.10;;;;;;5072172;28;20945;-64
2022/08/03 10:33:26;;;;;;;2.50;2.30;;;40.20;41.30;;;;;;5073266;28;20802;-64
2022/08/03 10:35:55;;;;;;;3.70;2.40;;;40.90;39.90;;;;;;5075171;28;20466;-65
2022/08/03 10:38:25;;;;;;;2.40;2.30;;;42.20;39.70;;;;;;5088181;28;20426;-65
2022/08/03 10:40:54;;;;;;;2.50;2.40;;;43.40;38.20;;;;;;5075565;28;20430;-64
2022/08/03 10:43:24;;;;;;;2.90;2.30;;;44.70;36.90;;;;;;5075788;28;20442;-65
2022/08/03 10:45:50;;;;;;;2.53;2.43;;;45.20;35.40;;;;;;5080455;28;20451;-65
2022/08/03 10:48:17;;;;;;;2.30;2.20;;;44.80;34.70;;;;;;5073430;28;20435;-65
2022/08/03 10:50:44;;;;;;;3.23;3.03;;;42.80;36.10;;;;;;5066206;28;20443;-65
2022/08/03 10:53:09;;;;;;;2.53;2.43;;;43.30;36.00;;;;;;5071009;28;20439;-65
2022/08/03 10:58:37;;;;;;;3.17;2.97;;;44.80;33.90;;;;;;5074100;28;20603;-66
2022/08/03 11:01:07;;;;;;;2.63;2.50;;;45.30;33.40;;;;;;5060971;28;20442;-66
2022/08/03 11:03:47;;;;;;;2.83;2.70;;;44.80;33.80;;;;;;5064877;28;20439;-66
2022/08/03 11:06:17;;;;;;;2.90;2.80;;;45.20;33.00;;;;;;5069536;28;20844;-66
2022/08/03 11:08:44;;;;;;;3.00;2.90;;;46.30;32.20;;;;;;5062549;28;20438;-66
2022/08/03 11:11:18;;;;;;;2.80;2.40;;;46.90;31.50;;;;;;5064084;28;20444;-65
2022/08/03 11:14:03;;;;;;;3.47;3.27;;;46.50;31.50;;;;;;5069342;28;20438;-66
2022/08/03 11:16:31;;;;;;;2.73;2.53;;;43.70;32.80;;;;;;5067201;28;20852;-66
2022/08/03 11:18:59;;;;;;;2.70;2.50;;;43.80;33.20;;;;;;5066700;28;20447;-66
2022/08/03 11:21:51;;;;;;;2.80;2.70;;;45.50;32.70;;;;;;5057482;28;20454;-65
2022/08/03 11:24:35;;;;;;;2.83;2.60;;;46.60;31.40;;;;;;5060721;28;21249;-65
2022/08/03 11:27:29;;;;;;;3.33;3.20;;;47.60;30.80;;;;;;5058480;28;20506;-66
2022/08/03 11:29:58;;;;;;;5.13;2.80;;;48.70;29.90;;;;;;5060526;28;20442;-65
2022/08/03 11:32:39;;;;;;;2.87;2.77;;;49.50;29.10;;;;;;5064968;28;20439;-65
2022/08/03 11:35:10;;;;;;;3.30;3.20;;;49.70;29.00;;;;;;5059553;28;20435;-65
2022/08/03 11:37:55;;;;;;;3.10;3.00;;;49.30;28.70;;;;;;5060123;28;20469;-65
2022/08/03 11:40:38;;;;;;;3.73;3.50;;;48.90;28.60;;;;;;5059490;28;20842;-65
2022/08/03 11:43:08;;;;;;;4.07;3.77;;;49.30;28.30;;;;;;5060133;28;20944;-65
2022/08/03 11:45:35;;;;;;;4.17;4.00;;;49.40;28.40;;;;;;5063923;28;20463;-65
2022/08/03 11:48:16;;;;;;;3.40;3.20;;;49.60;28.20;;;;;;5066310;28;20459;-65
2022/08/03 11:50:44;;;;;;;3.43;3.23;;;46.20;29.00;;;;;;5060376;28;20842;-65
2022/08/03 11:53:14;;;;;;;2.70;2.60;;;45.50;30.00;;;;;;5062648;28;20440;-65
2022/08/03 11:55:43;;;;;;;2.33;2.23;;;45.40;30.00;;;;;;5059061;28;20463;-65
2022/08/03 11:58:22;;;;;;;4.23;4.03;;;45.60;30.00;;;;;;5066440;28;20519;-65
2022/08/03 12:00:49;;;;;;;3.17;3.00;;;45.70;29.30;;;;;;5062509;28;20981;-65
2022/08/03 12:03:17;;;;;;;2.87;2.67;;;46.50;29.60;;;;;;5055266;28;20877;-65
2022/08/03 12:05:51;;;;;;;3.43;3.33;;;48.00;29.00;;;;;;5068376;28;20458;-65
2022/08/03 12:08:29;;;;;;;2.93;2.83;;;49.00;28.30;;;;;;5062770;28;20522;-65
2022/08/03 12:10:57;;;;;;;4.43;3.20;;;49.30;27.90;;;;;;5060941;28;20476;-65
2022/08/03 12:13:24;;;;;;;3.37;3.17;;;47.80;28.50;;;;;;5056859;28;20996;-65
2022/08/03 12:15:55;;;;;;;2.53;2.40;;;48.20;28.20;;;;;;5065210;28;20471;-65
2022/08/03 12:18:21;;;;;;;3.57;3.43;;;47.60;28.40;;;;;;5067132;28;20939;-65
2022/08/03 12:20:49;;;;;;;3.30;3.00;;;45.60;29.10;;;;;;5061770;28;20534;-65
2022/08/03 12:23:16;;;;;;;3.10;2.90;;;46.50;29.20;;;;;;5067849;28;20493;-65
2022/08/03 12:25:43;;;;;;;3.63;3.43;;;47.10;28.80;;;;;;5052516;28;21120;-65
2022/08/03 12:28:15;;;;;;;3.60;3.40;;;48.10;28.20;;;;;;5060983;28;20444;-65
2022/08/03 12:30:42;;;;;;;3.93;3.83;;;48.50;27.80;;;;;;5033727;28;20551;-65
2022/08/03 12:33:16;;;;;;;3.53;3.40;;;48.80;27.70;;;;;;5042522;28;20447;-65
2022/08/03 12:35:41;;;;;;;3.90;3.60;;;49.70;27.50;;;;;;5055943;28;20528;-65
2022/08/03 12:38:07;;;;;;;4.30;4.00;;;51.00;27.00;;;;;;5054856;28;20443;-65
2022/08/03 12:40:33;;;;;;;4.17;3.87;;;51.10;26.50;;;;;;5061946;28;20185;-65
2022/08/03 12:42:58;;;;;;;3.87;3.77;;;51.00;26.80;;;;;;5067441;28;20200;-65
2022/08/03 12:45:27;;;;;;;3.60;3.50;;;50.80;26.80;;;;;;5068644;28;20188;-65
2022/08/03 12:47:57;;;;;;;3.63;3.53;;;51.30;26.30;;;;;;5061450;28;20176;-65
2022/08/03 12:50:27;;;;;;;3.90;3.67;;;50.80;26.70;;;;;;5062732;28;20435;-66
2022/08/03 12:52:54;;;;;;;4.50;4.20;;;51.70;26.20;;;;;;5066554;28;20426;-65
2022/08/03 12:55:21;;;;;;;4.20;4.00;;;52.50;25.90;;;;;;5063039;28;20463;-65
2022/08/03 12:57:47;;;;;;;4.30;4.10;;;52.60;25.60;;;;;;5062335;28;20512;-65
2022/08/03 13:00:15;;;;;;;4.37;4.07;;;52.10;25.50;;;;;;5059516;28;20983;-65
2022/08/03 13:02:42;;;;;;;3.60;3.50;;;51.10;25.60;;;;;;5055434;28;20830;-65
2022/08/03 13:05:12;;;;;;;3.00;2.80;;;51.10;25.60;;;;;;5061160;28;20459;-65